메인 페이지
METAR-TAF:

METAR-TAF

공항 :

Tumbes, 페루

위도: 03-33S, 경도: 080-24W, 고도: 25m

현재 날씨관측

예보는 1 시간 11분 전, 18:00시(UTC)에 발표되었습니다.
북서8kt
온도 32°C
습도 52%
기압 1009 hPa
시정 10km 이상
고도 2000ft 상공 구름 조금

METAR: SPME 171800Z 32008KT 9999 FEW020 32/21 Q1009 RMK BIRD HAZARD RWY 32/14 PP000

시각: 14:11 (19:11 UTC)

예보

예보는 1 시간 56분 전, 17:15시(UTC)에 발표되었습니다.
예보 대상 시간: 17일 18시부터 18일 18시까지 (UTC)
서북서8kt
시정 10km 이상
고도 3000ft 상공 구름 보통
일시적
18일 13시부터 18일 15시까지 (UTC)
시정: 4000m
고도 1000ft 상공 구름 많음
박무,

TAF: SPME 171715Z 1718/1818 30008KT 9999 SCT030 TX29/1719Z TN25/1811Z TEMPO 1813/1815 4000 BR BKN010

4,000개 이상의 공항 관측 자료 및 예보 (METAR 및 TAF 보고).

지도상에서 검색 가능한 기상관측소가 노란 점과 빨간 점으로 표시되어 있습니다.

기상관측소 명을 보려면 표시 위로 마우스를 이동하세요.

날씨 관측과 예보를 보려면 클릭하세요.

지도 변경 : 확대하려면 엑스 표시가 있는 녹색 버튼, 축소하려면 빼기 표시가 있는 녹색 버튼, 다음 페이지의 지도를 보려면 녹색 화살표를 클릭하세요.


METAR-TAF: